Time;durP1;ratioP1;P1;durP2;ratioP2;P2;SDS_P1;SDS_P2;PMS_P1;PMS_P2;Temp;Humidity;BMP_temperature;BMP_pressure;BME280_temperature;BME280_humidity;BME280_pressure;Samples;Min_cycle;Max_cycle;Signal;HPM_P1;HPM_P2
2022/03/03 00:01:42;;;;;;;39.97;25.38;;;4.70;99.90;;;;;;5055204;28;20019;-57
2022/03/03 00:04:08;;;;;;;43.65;24.30;;;4.60;99.90;;;;;;5054882;28;20017;-57
2022/03/03 00:06:35;;;;;;;40.22;25.60;;;4.50;99.90;;;;;;5054918;28;20378;-56
2022/03/03 00:09:01;;;;;;;41.50;25.65;;;4.60;99.90;;;;;;5055211;28;20029;-56
2022/03/03 00:11:26;;;;;;;43.25;25.25;;;4.50;99.90;;;;;;5054792;28;20043;-56
2022/03/03 00:13:52;;;;;;;40.38;24.92;;;4.40;99.90;;;;;;5054187;28;20497;-56
2022/03/03 00:16:18;;;;;;;42.92;26.65;;;4.40;99.90;;;;;;5053725;28;20025;-56
2022/03/03 00:18:43;;;;;;;42.83;26.42;;;4.40;99.90;;;;;;5054058;28;20582;-56
2022/03/03 00:21:09;;;;;;;43.67;27.15;;;4.40;99.90;;;;;;5054776;28;20025;-56
2022/03/03 00:23:35;;;;;;;39.90;26.23;;;4.50;99.90;;;;;;5054564;28;20524;-56
2022/03/03 00:26:01;;;;;;;45.65;27.85;;;4.50;99.90;;;;;;5055315;28;20029;-56
2022/03/03 00:28:27;;;;;;;46.08;26.10;;;4.50;99.90;;;;;;5054636;28;20036;-56
2022/03/03 00:30:53;;;;;;;42.95;27.13;;;4.60;99.90;;;;;;5053834;28;20513;-57
2022/03/03 00:33:18;;;;;;;41.50;26.25;;;4.50;99.90;;;;;;5053973;28;20018;-56
2022/03/03 00:35:45;;;;;;;45.40;28.70;;;4.50;99.90;;;;;;5054444;28;20463;-57
2022/03/03 00:38:11;;;;;;;46.13;27.88;;;4.50;99.90;;;;;;5053747;28;20059;-57
2022/03/03 00:40:37;;;;;;;43.90;27.70;;;4.40;99.90;;;;;;5054162;28;20021;-56
2022/03/03 00:43:04;;;;;;;42.50;26.70;;;4.40;99.90;;;;;;5054381;28;20025;-56
2022/03/03 00:45:30;;;;;;;42.83;27.73;;;4.20;99.90;;;;;;5053872;28;20033;-57
2022/03/03 00:47:55;;;;;;;49.75;28.80;;;4.10;99.90;;;;;;5053159;28;20449;-56
2022/03/03 00:50:21;;;;;;;48.55;28.98;;;4.10;99.90;;;;;;5053945;28;20017;-56
2022/03/03 00:52:47;;;;;;;43.67;27.33;;;4.10;99.90;;;;;;5054574;28;20025;-56
2022/03/03 00:55:12;;;;;;;44.15;29.13;;;4.00;99.90;;;;;;5054303;28;20048;-57
2022/03/03 00:57:38;;;;;;;48.67;28.90;;;4.00;99.90;;;;;;5054283;28;20025;-56
2022/03/03 01:00:05;;;;;;;46.85;30.08;;;4.00;99.90;;;;;;5054462;28;20390;-57
2022/03/03 01:02:34;;;;;;;50.08;29.27;;;3.90;99.90;;;;;;5054184;28;20056;-56
2022/03/03 01:05:00;;;;;;;49.58;29.25;;;4.00;99.90;;;;;;5053953;28;20040;-56
2022/03/03 01:07:26;;;;;;;52.15;29.88;;;4.00;99.90;;;;;;5053307;28;20041;-56
2022/03/03 01:09:52;;;;;;;49.33;29.45;;;3.90;99.90;;;;;;5053242;28;20031;-56
2022/03/03 01:12:17;;;;;;;46.38;29.30;;;3.90;99.90;;;;;;5051681;28;20029;-56
2022/03/03 01:14:43;;;;;;;52.65;28.17;;;3.90;99.90;;;;;;5053658;28;20052;-56
2022/03/03 01:17:09;;;;;;;50.95;29.92;;;3.90;99.90;;;;;;5052955;28;20532;-56
2022/03/03 01:19:35;;;;;;;52.88;30.05;;;4.00;99.90;;;;;;5053352;28;20110;-56
2022/03/03 01:22:00;;;;;;;49.28;27.65;;;3.90;99.90;;;;;;5052984;28;20436;-56
2022/03/03 01:24:26;;;;;;;45.20;29.23;;;4.00;99.90;;;;;;5053228;28;20040;-57
2022/03/03 01:26:55;;;;;;;51.15;29.05;;;4.00;99.90;;;;;;5053104;28;20048;-56
2022/03/03 01:29:21;;;;;;;49.15;28.35;;;4.10;99.90;;;;;;5053158;28;20020;-56
2022/03/03 01:31:46;;;;;;;44.70;26.77;;;4.10;99.90;;;;;;5053294;28;20048;-56
2022/03/03 01:34:12;;;;;;;47.25;28.45;;;4.10;99.90;;;;;;5053318;28;20097;-57
2022/03/03 01:36:37;;;;;;;47.17;29.35;;;4.20;99.90;;;;;;5053630;28;20021;-57
2022/03/03 01:39:04;;;;;;;45.33;26.70;;;4.00;99.90;;;;;;5052990;28;20028;-56
2022/03/03 01:41:29;;;;;;;46.80;28.63;;;4.00;99.90;;;;;;5053432;28;20104;-56
2022/03/03 01:43:55;;;;;;;48.65;27.88;;;4.00;99.90;;;;;;5053028;28;20108;-57
2022/03/03 01:46:21;;;;;;;48.13;27.88;;;3.90;99.90;;;;;;5052806;28;20024;-56
2022/03/03 01:48:46;;;;;;;49.72;28.00;;;3.90;99.90;;;;;;5052518;28;20028;-57
2022/03/03 01:51:12;;;;;;;49.72;29.08;;;3.90;99.90;;;;;;5052991;28;20028;-57
2022/03/03 01:53:38;;;;;;;45.28;27.90;;;3.90;99.90;;;;;;5052470;28;20024;-56
2022/03/03 01:56:05;;;;;;;50.50;29.67;;;3.90;99.90;;;;;;5053527;28;20021;-56
2022/03/03 01:58:31;;;;;;;45.88;27.65;;;3.80;99.90;;;;;;5052155;28;20100;-56
2022/03/03 02:00:57;;;;;;;44.72;27.85;;;3.60;99.90;;;;;;5053168;28;20546;-56
2022/03/03 02:03:22;;;;;;;46.05;27.05;;;3.60;99.90;;;;;;5051518;28;20029;-56
2022/03/03 02:05:49;;;;;;;46.45;28.02;;;3.50;99.90;;;;;;5051706;28;20024;-57
2022/03/03 02:08:14;;;;;;;48.53;28.30;;;3.40;99.90;;;;;;5052551;28;20029;-57
2022/03/03 02:10:40;;;;;;;49.60;27.75;;;3.30;99.90;;;;;;5052666;28;20043;-57
2022/03/03 02:13:07;;;;;;;41.53;27.58;;;3.30;99.90;;;;;;5052921;28;20036;-56
2022/03/03 02:15:32;;;;;;;45.70;26.95;;;3.30;99.90;;;;;;5052811;28;20024;-56
2022/03/03 02:17:59;;;;;;;45.78;27.20;;;3.20;99.90;;;;;;5052460;28;20029;-56
2022/03/03 02:20:29;;;;;;;47.17;28.02;;;3.10;99.90;;;;;;5052558;28;20037;-56
2022/03/03 02:22:56;;;;;;;45.25;28.17;;;3.10;99.90;;;;;;5052320;28;20021;-56
2022/03/03 02:25:23;;;;;;;49.05;29.25;;;3.20;99.90;;;;;;5052568;28;20032;-56
2022/03/03 02:27:49;;;;;;;44.92;27.60;;;3.10;99.90;;;;;;5051813;28;20033;-56
2022/03/03 02:30:17;;;;;;;46.30;27.70;;;3.20;99.90;;;;;;5052317;28;20047;-56
2022/03/03 02:32:44;;;;;;;44.42;27.25;;;3.20;99.90;;;;;;5051190;28;20091;-57
2022/03/03 02:35:10;;;;;;;45.85;27.98;;;3.20;99.90;;;;;;5052148;28;20025;-56
2022/03/03 02:37:42;;;;;;;49.35;27.70;;;3.10;99.90;;;;;;5052143;28;20067;-57
2022/03/03 02:40:11;;;;;;;45.80;26.95;;;3.00;99.90;;;;;;5052296;28;20029;-56
2022/03/03 02:42:37;;;;;;;44.65;26.52;;;2.90;99.90;;;;;;5052375;28;20025;-57
2022/03/03 02:45:04;;;;;;;46.55;27.45;;;2.90;99.90;;;;;;5052612;28;20009;-57
2022/03/03 02:47:30;;;;;;;50.75;28.58;;;2.90;99.90;;;;;;5051660;28;20081;-57
2022/03/03 02:49:56;;;;;;;49.50;29.35;;;2.90;99.90;;;;;;5051916;28;20043;-56
2022/03/03 02:52:22;;;;;;;48.80;26.83;;;2.90;99.90;;;;;;5051381;28;20024;-56
2022/03/03 02:54:47;;;;;;;45.05;27.00;;;3.00;99.90;;;;;;5052171;28;20075;-56
2022/03/03 02:59:58;;;;;;;45.03;26.30;;;2.90;99.90;;;;;;5051600;28;20056;-56
2022/03/03 03:02:23;;;;;;;44.50;25.80;;;2.90;99.90;;;;;;5051613;28;20455;-57
2022/03/03 03:04:49;;;;;;;42.83;25.73;;;2.90;99.90;;;;;;5052454;28;20493;-56
2022/03/03 03:07:15;;;;;;;43.20;26.95;;;2.90;99.90;;;;;;5051846;28;20029;-56
2022/03/03 03:09:40;;;;;;;43.08;25.52;;;2.90;99.90;;;;;;5051288;28;20033;-57
2022/03/03 03:12:06;;;;;;;43.90;26.02;;;2.90;99.90;;;;;;5051717;28;20080;-56
2022/03/03 03:14:32;;;;;;;48.28;26.00;;;2.90;99.90;;;;;;5051698;28;20021;-56
2022/03/03 03:16:57;;;;;;;42.05;25.13;;;3.00;99.90;;;;;;5051426;28;20505;-56
2022/03/03 03:19:23;;;;;;;42.03;24.45;;;3.00;99.90;;;;;;5051271;28;20116;-57
2022/03/03 03:21:48;;;;;;;44.47;25.88;;;3.00;99.90;;;;;;5051888;28;20489;-57
2022/03/03 03:24:15;;;;;;;44.05;24.88;;;3.10;99.90;;;;;;5051359;28;20021;-57
2022/03/03 03:26:40;;;;;;;40.15;24.30;;;3.10;99.90;;;;;;5051588;28;20025;-56
2022/03/03 03:29:06;;;;;;;43.83;25.20;;;3.10;99.90;;;;;;5051542;28;20381;-56
2022/03/03 03:31:32;;;;;;;41.33;23.52;;;3.20;99.90;;;;;;5050859;28;20079;-57
2022/03/03 03:33:58;;;;;;;41.03;23.23;;;3.20;99.90;;;;;;5051645;28;20099;-56
2022/03/03 03:36:24;;;;;;;45.42;24.33;;;3.20;99.90;;;;;;5050891;28;20394;-56
2022/03/03 03:38:54;;;;;;;42.20;26.85;;;3.30;99.90;;;;;;5050577;28;20060;-56
2022/03/03 03:41:19;;;;;;;42.90;24.58;;;3.40;99.90;;;;;;5050175;28;20490;-57
2022/03/03 03:43:45;;;;;;;44.00;24.13;;;3.40;99.90;;;;;;5051225;28;20029;-57
2022/03/03 03:46:10;;;;;;;47.38;25.08;;;3.40;99.90;;;;;;5050661;28;20106;-56
2022/03/03 03:48:36;;;;;;;37.17;23.33;;;3.40;99.90;;;;;;5051149;28;20033;-56
2022/03/03 03:51:02;;;;;;;39.45;23.48;;;3.20;99.90;;;;;;5051072;28;20025;-56
2022/03/03 03:53:30;;;;;;;40.38;24.02;;;3.10;99.90;;;;;;5051205;28;20485;-56
2022/03/03 03:55:59;;;;;;;44.03;24.05;;;3.10;99.90;;;;;;5051294;28;20036;-57
2022/03/03 03:58:25;;;;;;;40.65;23.98;;;3.10;99.90;;;;;;5049782;28;20093;-57
2022/03/03 04:00:50;;;;;;;42.33;23.90;;;3.00;99.90;;;;;;5050827;28;20525;-56
2022/03/03 04:03:16;;;;;;;40.80;21.98;;;2.90;99.90;;;;;;5050452;28;20107;-56
2022/03/03 04:05:42;;;;;;;38.38;20.63;;;3.00;99.90;;;;;;5050544;28;20025;-57
2022/03/03 04:08:07;;;;;;;36.38;19.98;;;3.10;99.90;;;;;;5051573;28;20393;-56
2022/03/03 04:10:33;;;;;;;36.25;21.33;;;3.30;99.90;;;;;;5051433;28;20029;-56
2022/03/03 04:12:59;;;;;;;33.92;19.80;;;3.30;99.90;;;;;;5051249;28;20032;-56
2022/03/03 04:15:24;;;;;;;35.95;21.02;;;3.40;99.90;;;;;;5050929;28;20404;-56
2022/03/03 04:17:50;;;;;;;38.03;20.83;;;3.40;99.90;;;;;;5051439;28;20032;-57
2022/03/03 04:20:18;;;;;;;36.83;20.92;;;3.50;99.90;;;;;;5051498;28;20021;-57
2022/03/03 04:22:43;;;;;;;36.30;20.35;;;3.60;99.90;;;;;;5054271;28;20405;-56
2022/03/03 04:25:10;;;;;;;36.10;20.73;;;3.50;99.90;;;;;;5055887;28;20025;-56
2022/03/03 04:27:37;;;;;;;34.60;21.48;;;3.60;99.90;;;;;;5046898;28;20029;-57
2022/03/03 04:30:09;;;;;;;38.03;22.35;;;3.60;99.90;;;;;;5046440;28;20025;-57
2022/03/03 04:32:35;;;;;;;36.10;22.35;;;3.60;99.90;;;;;;5040813;28;20049;-57
2022/03/03 04:35:02;;;;;;;37.63;21.92;;;3.50;99.90;;;;;;5034295;28;20025;-57
2022/03/03 04:37:27;;;;;;;37.83;21.80;;;3.40;99.90;;;;;;5034654;28;20391;-57
2022/03/03 04:39:53;;;;;;;36.05;21.50;;;3.20;99.90;;;;;;5035653;28;20030;-57
2022/03/03 04:42:19;;;;;;;36.88;22.30;;;2.90;99.90;;;;;;5036150;28;20030;-57
2022/03/03 04:44:44;;;;;;;41.35;22.77;;;2.80;99.90;;;;;;5035081;28;20032;-56
2022/03/03 04:47:10;;;;;;;41.33;24.13;;;2.90;99.90;;;;;;5034695;28;20022;-56
2022/03/03 04:49:35;;;;;;;38.95;23.98;;;2.90;99.90;;;;;;5034645;28;20029;-56
2022/03/03 04:52:01;;;;;;;42.97;23.77;;;2.90;99.90;;;;;;5034824;28;20017;-57
2022/03/03 04:54:27;;;;;;;40.58;24.55;;;2.90;99.90;;;;;;5035356;28;20544;-57
2022/03/03 04:56:54;;;;;;;45.40;23.90;;;2.80;99.90;;;;;;5034598;28;20021;-57
2022/03/03 04:59:20;;;;;;;41.10;23.83;;;2.60;99.90;;;;;;5034617;28;20083;-56
2022/03/03 05:01:46;;;;;;;41.15;23.02;;;2.40;99.90;;;;;;5034163;28;20481;-56
2022/03/03 05:04:11;;;;;;;39.55;23.27;;;2.30;99.90;;;;;;5033968;28;20029;-57
2022/03/03 05:06:37;;;;;;;38.78;23.52;;;2.20;99.90;;;;;;5033779;28;20029;-57
2022/03/03 05:09:03;;;;;;;42.22;24.60;;;2.10;99.90;;;;;;5034775;28;20028;-56
2022/03/03 05:11:28;;;;;;;42.38;23.95;;;2.00;99.90;;;;;;5034837;28;20434;-57
2022/03/03 05:13:54;;;;;;;43.42;24.13;;;2.10;99.90;;;;;;5034208;28;20030;-56
2022/03/03 05:16:20;;;;;;;40.90;24.30;;;2.10;99.90;;;;;;5033714;28;20056;-56
2022/03/03 05:18:45;;;;;;;41.88;25.17;;;2.10;99.90;;;;;;5034550;28;20048;-57
2022/03/03 05:21:11;;;;;;;45.72;24.88;;;2.10;99.90;;;;;;5034356;28;20017;-57
2022/03/03 05:23:37;;;;;;;47.22;25.77;;;2.00;99.90;;;;;;5034577;28;20040;-57
2022/03/03 05:26:02;;;;;;;46.88;26.02;;;2.00;99.90;;;;;;5033880;28;20025;-56
2022/03/03 05:28:28;;;;;;;48.65;26.02;;;2.10;99.90;;;;;;5033943;28;20026;-56
2022/03/03 05:30:54;;;;;;;47.60;26.77;;;2.10;99.90;;;;;;5033354;28;20045;-57
2022/03/03 05:33:20;;;;;;;46.30;25.73;;;2.10;99.90;;;;;;5033290;28;20044;-57
2022/03/03 05:35:48;;;;;;;43.72;25.17;;;2.10;99.90;;;;;;5033815;28;20018;-57
2022/03/03 05:38:13;;;;;;;46.20;26.17;;;2.20;99.90;;;;;;5033164;28;20025;-57
2022/03/03 05:40:39;;;;;;;42.42;25.85;;;2.40;99.90;;;;;;5033286;28;20091;-57
2022/03/03 05:43:05;;;;;;;44.22;25.27;;;2.40;99.90;;;;;;5033721;28;20052;-57
2022/03/03 05:45:34;;;;;;;48.53;24.00;;;2.40;99.90;;;;;;5034006;28;20483;-56
2022/03/03 05:48:00;;;;;;;42.58;24.38;;;2.40;99.90;;;;;;5033370;28;20021;-57
2022/03/03 05:50:26;;;;;;;42.58;23.95;;;2.40;99.90;;;;;;5033387;28;20033;-57
2022/03/03 05:52:53;;;;;;;43.60;24.58;;;2.40;99.90;;;;;;5033603;28;20087;-57
2022/03/03 05:55:19;;;;;;;43.63;25.27;;;2.50;99.90;;;;;;5033758;28;20108;-56
2022/03/03 05:57:48;;;;;;;41.28;23.52;;;2.40;99.90;;;;;;5033353;28;20101;-57
2022/03/03 06:00:17;;;;;;;43.10;25.02;;;2.40;99.90;;;;;;5033428;28;20022;-56
2022/03/03 06:02:51;;;;;;;44.72;24.50;;;2.50;99.90;;;;;;5033173;28;20385;-57
2022/03/03 06:05:25;;;;;;;42.33;24.65;;;2.40;99.90;;;;;;5032806;28;20053;-57
2022/03/03 06:07:53;;;;;;;42.40;22.92;;;2.20;99.90;;;;;;5033095;28;20405;-57
2022/03/03 06:10:24;;;;;;;44.00;25.13;;;2.10;99.90;;;;;;5033076;28;20049;-58
2022/03/03 06:12:57;;;;;;;46.90;24.75;;;2.10;99.90;;;;;;5032580;28;20483;-56
2022/03/03 06:15:23;;;;;;;42.33;23.92;;;2.00;99.90;;;;;;5032893;28;20030;-56
2022/03/03 06:17:50;;;;;;;41.50;24.55;;;1.90;99.90;;;;;;5033128;28;20028;-56
2022/03/03 06:20:18;;;;;;;39.20;22.83;;;1.90;99.90;;;;;;5032489;28;20056;-56
2022/03/03 06:22:43;;;;;;;45.22;25.05;;;1.90;99.90;;;;;;5032444;28;20025;-56
2022/03/03 06:25:10;;;;;;;42.83;25.00;;;1.90;99.90;;;;;;5033192;28;20116;-56
2022/03/03 06:27:36;;;;;;;45.85;25.48;;;2.00;99.90;;;;;;5032876;28;20029;-56
2022/03/03 06:30:02;;;;;;;49.00;25.67;;;2.00;99.90;;;;;;5033528;28;20036;-55
2022/03/03 06:32:28;;;;;;;48.45;25.80;;;2.00;99.90;;;;;;5048126;28;20510;-56
2022/03/03 06:34:53;;;;;;;47.13;25.73;;;2.10;99.90;;;;;;5033000;28;20026;-56
2022/03/03 06:37:19;;;;;;;47.17;25.67;;;2.00;99.90;;;;;;5033491;28;20035;-56
2022/03/03 06:39:45;;;;;;;43.33;25.02;;;1.90;99.90;;;;;;5033044;28;20026;-56
2022/03/03 06:42:10;;;;;;;43.38;23.75;;;1.90;99.90;;;;;;5031169;28;20052;-57
2022/03/03 06:44:36;;;;;;;45.90;24.63;;;1.80;99.90;;;;;;5031737;28;20017;-56
2022/03/03 06:47:03;;;;;;;43.13;24.50;;;1.80;99.90;;;;;;5032200;28;20478;-56
2022/03/03 06:49:29;;;;;;;45.38;24.27;;;1.70;99.90;;;;;;5032384;28;20025;-56
2022/03/03 06:51:57;;;;;;;45.60;24.60;;;1.80;99.90;;;;;;5032849;28;20537;-56
2022/03/03 06:54:24;;;;;;;45.33;24.70;;;1.80;99.90;;;;;;5033058;28;20441;-56
2022/03/03 06:56:57;;;;;;;49.10;24.90;;;1.70;99.90;;;;;;5033069;28;20026;-57
2022/03/03 06:59:33;;;;;;;44.83;24.40;;;1.70;99.90;;;;;;5032270;28;20018;-56
2022/03/03 07:02:00;;;;;;;46.25;24.38;;;1.90;99.90;;;;;;5032810;28;20330;-56
2022/03/03 07:04:29;;;;;;;41.40;23.50;;;2.10;99.90;;;;;;5031270;28;20116;-56
2022/03/03 07:06:55;;;;;;;46.20;24.77;;;2.30;99.90;;;;;;5031905;28;20033;-56
2022/03/03 07:09:21;;;;;;;42.40;24.38;;;2.50;99.90;;;;;;5031951;28;20022;-56
2022/03/03 07:11:49;;;;;;;42.17;23.58;;;2.50;99.90;;;;;;5031815;28;20039;-56
2022/03/03 07:14:15;;;;;;;42.25;23.95;;;2.50;99.90;;;;;;5032311;28;20022;-56
2022/03/03 07:16:43;;;;;;;43.20;25.02;;;2.50;99.90;;;;;;5031787;28;20035;-56
2022/03/03 07:19:25;;;;;;;39.55;23.13;;;2.50;99.90;;;;;;5032073;28;20132;-56
2022/03/03 07:22:18;;;;;;;44.83;23.52;;;2.50;99.90;;;;;;5031735;28;20037;-56
2022/03/03 07:24:57;;;;;;;44.58;23.05;;;2.70;99.90;;;;;;5031740;28;20057;-56
2022/03/03 07:27:24;;;;;;;37.90;22.85;;;2.90;99.90;;;;;;5032753;28;20017;-56
2022/03/03 07:30:05;;;;;;;37.20;22.08;;;3.20;99.90;;;;;;5031816;28;20043;-56
2022/03/03 07:32:33;;;;;;;41.72;22.48;;;3.40;99.90;;;;;;5032014;28;20518;-56
2022/03/03 07:35:03;;;;;;;40.15;22.60;;;3.60;99.90;;;;;;5031394;28;20129;-56
2022/03/03 07:37:35;;;;;;;40.30;22.58;;;3.80;99.90;;;;;;5030610;28;20474;-56
2022/03/03 07:40:05;;;;;;;42.90;22.40;;;4.00;99.90;;;;;;5030922;28;20033;-56
2022/03/03 07:42:31;;;;;;;37.63;21.45;;;4.30;99.90;;;;;;5031472;28;20077;-56
2022/03/03 07:44:56;;;;;;;41.22;21.38;;;4.60;99.90;;;;;;5031270;28;20033;-56
2022/03/03 07:47:22;;;;;;;36.92;22.45;;;4.70;99.90;;;;;;5031270;28;20027;-56
2022/03/03 07:49:48;;;;;;;36.20;21.45;;;4.80;99.90;;;;;;5031294;28;20029;-56
2022/03/03 07:52:13;;;;;;;42.53;22.48;;;4.70;99.90;;;;;;5031132;28;20117;-56
2022/03/03 07:54:39;;;;;;;37.85;22.17;;;4.80;99.90;;;;;;5031823;28;20140;-57
2022/03/03 07:57:12;;;;;;;35.65;21.45;;;4.90;99.90;;;;;;5033891;28;20108;-56
2022/03/03 07:59:41;;;;;;;40.95;21.30;;;4.90;99.90;;;;;;5035675;28;20026;-56
2022/03/03 08:02:07;;;;;;;39.80;22.63;;;4.90;99.90;;;;;;5034970;28;20648;-56
2022/03/03 08:04:33;;;;;;;38.72;22.10;;;5.00;99.90;;;;;;5034772;28;20028;-56
2022/03/03 08:07:08;;;;;;;37.35;22.55;;;5.30;99.90;;;;;;5035346;28;20037;-56
2022/03/03 08:09:34;;;;;;;36.35;22.42;;;5.40;99.90;;;;;;5034854;28;20021;-56
2022/03/03 08:12:05;;;;;;;36.08;21.90;;;5.50;99.90;;;;;;5034709;28;20029;-56
2022/03/03 08:14:32;;;;;;;36.78;22.17;;;5.80;99.90;;;;;;5034472;28;20431;-56
2022/03/03 08:16:58;;;;;;;40.47;22.80;;;5.80;99.90;;;;;;5034815;28;20034;-56
2022/03/03 08:19:24;;;;;;;47.58;22.45;;;5.90;99.90;;;;;;5050396;28;20391;-56
2022/03/03 08:21:50;;;;;;;36.50;22.50;;;6.00;99.90;;;;;;5034017;28;20072;-56
2022/03/03 08:24:16;;;;;;;38.08;21.60;;;6.50;99.90;;;;;;5034098;28;20425;-57
2022/03/03 08:26:43;;;;;;;32.75;20.15;;;7.90;99.90;;;;;;5033868;28;20025;-57
2022/03/03 08:29:09;;;;;;;29.95;20.65;;;9.40;99.90;;;;;;5033125;28;20030;-57
2022/03/03 08:31:48;;;;;;;31.10;20.77;;;10.30;99.90;;;;;;5033233;28;20045;-58
2022/03/03 08:34:42;;;;;;;36.70;23.98;;;11.10;98.10;;;;;;5033378;28;20083;-58
2022/03/03 08:37:15;;;;;;;32.58;21.77;;;11.90;96.50;;;;;;5032927;28;20072;-58
2022/03/03 08:39:42;;;;;;;32.17;20.65;;;13.00;94.50;;;;;;5033711;28;20029;-58
2022/03/03 08:42:13;;;;;;;36.03;22.80;;;13.80;91.70;;;;;;5033124;28;20021;-57
2022/03/03 08:44:42;;;;;;;31.67;22.67;;;14.60;90.20;;;;;;5031972;28;20398;-58
2022/03/03 08:47:12;;;;;;;34.22;23.42;;;14.90;87.60;;;;;;5032713;28;20022;-57
2022/03/03 08:49:39;;;;;;;30.67;21.63;;;15.00;85.70;;;;;;5032502;28;20038;-57
2022/03/03 08:52:07;;;;;;;33.00;22.58;;;15.20;85.10;;;;;;5031500;28;20497;-57
2022/03/03 08:54:33;;;;;;;31.83;22.52;;;15.00;84.20;;;;;;5032909;28;20022;-58
2022/03/03 08:57:00;;;;;;;32.65;21.73;;;14.80;85.90;;;;;;5032586;28;20029;-58
2022/03/03 08:59:26;;;;;;;35.38;23.98;;;14.50;86.00;;;;;;5032740;28;20482;-58
2022/03/03 09:01:53;;;;;;;33.70;21.60;;;14.90;85.10;;;;;;5032869;28;20033;-58
2022/03/03 09:04:19;;;;;;;33.92;22.88;;;14.50;85.10;;;;;;5032572;28;20033;-58
2022/03/03 09:06:45;;;;;;;31.20;21.65;;;14.50;86.00;;;;;;5031990;28;20029;-58
2022/03/03 09:09:11;;;;;;;31.23;20.92;;;14.70;84.70;;;;;;5031884;28;20021;-58
2022/03/03 09:11:38;;;;;;;31.42;21.73;;;14.50;84.80;;;;;;5032316;28;20033;-58
2022/03/03 09:14:04;;;;;;;31.15;21.00;;;15.00;85.50;;;;;;5032405;28;20026;-58
2022/03/03 09:16:30;;;;;;;34.42;21.88;;;15.20;84.40;;;;;;5032113;28;20447;-58
2022/03/03 09:18:56;;;;;;;28.42;20.38;;;15.90;82.20;;;;;;5032234;28;20078;-58
2022/03/03 09:21:22;;;;;;;27.52;20.58;;;16.00;81.30;;;;;;5032136;28;20063;-58
2022/03/03 09:23:47;;;;;;;29.38;21.08;;;16.30;81.90;;;;;;5032629;28;20034;-59
2022/03/03 09:26:13;;;;;;;26.75;20.05;;;16.10;80.60;;;;;;5031935;28;20112;-58
2022/03/03 09:28:39;;;;;;;32.10;20.38;;;14.80;84.40;;;;;;5032065;28;20029;-58
2022/03/03 09:31:05;;;;;;;29.08;21.25;;;14.40;86.50;;;;;;5031639;28;20042;-58
2022/03/03 09:33:31;;;;;;;32.88;20.50;;;15.30;85.60;;;;;;5032102;28;20045;-58
2022/03/03 09:35:56;;;;;;;29.02;20.85;;;14.80;85.00;;;;;;5032214;28;20071;-58
2022/03/03 09:38:22;;;;;;;33.25;22.38;;;14.00;87.40;;;;;;5030948;28;20056;-58
2022/03/03 09:40:48;;;;;;;30.83;21.88;;;13.50;89.40;;;;;;5033443;28;20018;-58
2022/03/03 09:43:14;;;;;;;31.63;22.48;;;13.10;90.70;;;;;;5032276;28;20034;-58
2022/03/03 09:45:40;;;;;;;32.00;21.85;;;13.00;90.80;;;;;;5032348;28;20348;-58
2022/03/03 09:48:07;;;;;;;36.40;22.20;;;12.80;90.90;;;;;;5032523;28;20029;-57
2022/03/03 09:50:38;;;;;;;34.45;21.85;;;12.10;92.70;;;;;;5032745;28;20421;-57
2022/03/03 09:53:18;;;;;;;36.75;22.38;;;13.00;92.00;;;;;;5031891;28;20479;-58
2022/03/03 09:55:46;;;;;;;34.70;23.75;;;14.10;90.50;;;;;;5032264;28;20056;-57
2022/03/03 09:58:12;;;;;;;30.10;22.30;;;15.40;88.60;;;;;;5031773;28;20383;-58
2022/03/03 10:00:40;;;;;;;33.67;23.38;;;15.80;85.50;;;;;;5031262;28;20044;-58
2022/03/03 10:03:10;;;;;;;36.03;23.70;;;15.80;84.50;;;;;;5031507;28;20053;-57
2022/03/03 10:05:40;;;;;;;41.83;24.33;;;15.50;85.30;;;;;;5031744;28;20056;-58
2022/03/03 10:08:10;;;;;;;32.30;24.08;;;16.00;85.70;;;;;;5031315;28;20111;-59
2022/03/03 10:10:38;;;;;;;30.15;22.88;;;15.90;85.40;;;;;;5031005;28;20034;-58
2022/03/03 10:13:05;;;;;;;36.20;24.25;;;15.70;85.50;;;;;;5031410;28;20378;-57
2022/03/03 10:15:31;;;;;;;35.80;25.05;;;15.30;87.50;;;;;;5031514;28;20025;-57
2022/03/03 10:18:00;;;;;;;34.17;24.50;;;14.70;88.50;;;;;;5030882;28;20406;-57
2022/03/03 10:20:27;;;;;;;37.35;25.15;;;14.60;90.30;;;;;;5030332;28;20026;-57
2022/03/03 10:22:58;;;;;;;33.70;24.65;;;14.80;90.10;;;;;;5030992;28;20022;-57
2022/03/03 10:25:33;;;;;;;33.45;24.48;;;15.30;89.80;;;;;;5031230;28;20112;-57
2022/03/03 10:28:22;;;;;;;37.05;25.27;;;16.10;87.80;;;;;;5030914;28;20048;-57
2022/03/03 10:31:05;;;;;;;35.72;26.05;;;16.60;86.50;;;;;;5030827;28;20071;-57
2022/03/03 10:33:34;;;;;;;39.85;26.08;;;16.40;85.60;;;;;;5030943;28;20025;-57
2022/03/03 10:36:08;;;;;;;35.72;25.55;;;16.60;85.40;;;;;;5030769;28;20067;-57
2022/03/03 10:38:43;;;;;;;36.65;26.95;;;16.20;87.60;;;;;;5030925;28;20029;-57
2022/03/03 10:41:46;;;;;;;36.42;25.95;;;16.30;86.20;;;;;;5045840;28;20032;-57
2022/03/03 10:44:17;;;;;;;35.50;26.60;;;16.70;85.70;;;;;;5030765;28;20033;-57
2022/03/03 10:47:12;;;;;;;37.72;26.95;;;16.50;85.40;;;;;;5030574;28;20116;-57
2022/03/03 10:49:40;;;;;;;41.28;29.05;;;16.40;86.30;;;;;;5030139;28;20025;-57
2022/03/03 10:52:23;;;;;;;39.05;28.98;;;16.00;88.20;;;;;;5030303;28;20477;-58
2022/03/03 10:55:03;;;;;;;39.28;29.10;;;16.40;86.60;;;;;;5030450;28;20528;-58
2022/03/03 10:57:42;;;;;;;39.95;28.27;;;16.90;86.40;;;;;;5030282;28;20021;-58
2022/03/03 11:00:23;;;;;;;41.85;28.77;;;17.20;85.50;;;;;;5030357;28;20034;-58
2022/03/03 11:02:55;;;;;;;41.45;29.08;;;17.50;85.70;;;;;;5030371;28;20033;-58
2022/03/03 11:05:22;;;;;;;40.72;28.38;;;17.20;85.00;;;;;;5030521;28;20056;-58
2022/03/03 11:07:49;;;;;;;37.28;27.02;;;16.90;86.20;;;;;;5030312;28;20445;-58
2022/03/03 11:10:17;;;;;;;36.30;25.98;;;17.10;86.40;;;;;;5030296;28;20080;-58
2022/03/03 11:12:44;;;;;;;36.53;25.45;;;17.10;86.00;;;;;;5030511;28;20018;-58
2022/03/03 11:15:14;;;;;;;35.65;25.42;;;17.60;85.30;;;;;;5030053;28;20026;-58
2022/03/03 11:17:41;;;;;;;34.72;25.27;;;17.90;84.30;;;;;;5030049;28;20021;-58
2022/03/03 11:20:09;;;;;;;41.90;25.58;;;18.30;83.90;;;;;;5029891;28;20633;-58
2022/03/03 11:22:39;;;;;;;37.67;25.17;;;18.40;82.50;;;;;;5029844;28;20029;-58
2022/03/03 11:25:09;;;;;;;33.30;24.98;;;18.30;81.70;;;;;;5030395;28;20049;-58
2022/03/03 11:27:37;;;;;;;35.83;25.10;;;17.50;84.00;;;;;;5029880;28;20536;-58
2022/03/03 11:30:12;;;;;;;36.13;26.50;;;17.10;85.90;;;;;;5029940;28;20533;-58
2022/03/03 11:32:37;;;;;;;38.67;26.48;;;17.10;85.50;;;;;;5030239;28;20539;-57
2022/03/03 11:35:08;;;;;;;33.33;25.35;;;17.40;84.20;;;;;;5030117;28;20097;-58
2022/03/03 11:37:45;;;;;;;38.85;25.80;;;18.00;82.90;;;;;;5030075;28;20032;-58
2022/03/03 11:40:20;;;;;;;31.30;24.58;;;18.80;81.10;;;;;;5029833;28;20030;-58
2022/03/03 11:42:53;;;;;;;35.75;26.30;;;18.70;80.80;;;;;;5030281;28;20029;-58
2022/03/03 11:45:31;;;;;;;37.70;26.40;;;18.30;83.10;;;;;;5030119;28;20043;-58
2022/03/03 11:48:15;;;;;;;36.88;25.30;;;18.50;81.40;;;;;;5029638;28;20037;-58
2022/03/03 11:50:41;;;;;;;35.03;25.92;;;18.00;82.40;;;;;;5029523;28;20033;-58
2022/03/03 11:53:10;;;;;;;38.28;26.10;;;18.20;82.10;;;;;;5029658;28;20033;-58
2022/03/03 11:55:36;;;;;;;32.65;24.75;;;18.60;82.50;;;;;;5029688;28;20431;-58
2022/03/03 11:58:07;;;;;;;39.08;25.23;;;18.60;82.30;;;;;;5044947;28;20112;-58
2022/03/03 12:00:39;;;;;;;33.67;25.52;;;19.30;81.20;;;;;;5029722;28;20026;-58
2022/03/03 12:03:08;;;;;;;38.33;26.15;;;19.30;80.00;;;;;;5029609;28;20030;-58
2022/03/03 12:05:40;;;;;;;37.65;25.83;;;19.60;77.90;;;;;;5030503;28;20030;-59
2022/03/03 12:08:11;;;;;;;38.92;26.48;;;19.80;77.90;;;;;;5029892;28;20092;-61
2022/03/03 12:10:56;;;;;;;36.20;25.45;;;20.60;75.70;;;;;;5030486;28;20041;-60
2022/03/03 12:13:35;;;;;;;31.58;24.63;;;21.30;74.40;;;;;;5029993;28;20052;-60
2022/03/03 12:16:20;;;;;;;37.35;26.08;;;21.30;72.10;;;;;;5029361;28;20049;-58
2022/03/03 12:19:04;;;;;;;35.97;25.77;;;20.60;73.10;;;;;;5029625;28;20036;-58
2022/03/03 12:21:41;;;;;;;34.05;26.23;;;20.70;74.20;;;;;;5029928;28;20078;-59
2022/03/03 12:24:17;;;;;;;33.95;25.83;;;20.30;74.90;;;;;;5031168;28;20037;-59
2022/03/03 12:26:54;;;;;;;37.25;25.90;;;20.50;74.90;;;;;;5049311;28;20052;-61
2022/03/03 12:29:49;;;;;;;32.08;26.17;;;20.30;75.20;;;;;;5048466;28;20400;-59
2022/03/03 12:32:29;;;;;;;35.80;26.15;;;20.10;74.40;;;;;;5049192;28;20510;-59
2022/03/03 12:35:00;;;;;;;40.22;26.23;;;20.60;73.30;;;;;;5049061;28;20025;-60
2022/03/03 12:37:26;;;;;;;37.53;27.20;;;21.00;73.60;;;;;;5049333;28;20104;-59
2022/03/03 12:39:55;;;;;;;36.53;26.70;;;21.20;71.50;;;;;;5048327;28;20376;-59
2022/03/03 12:42:22;;;;;;;41.00;27.42;;;21.50;71.00;;;;;;5050007;28;20028;-60